Norwegian Spirit — C6TQ6 — position and weather

sailwx.info

Track history (hours):
 
Tides and Currents Weather Stations Pressure Air Temp Water Temp Dewpoint Dewpoint Depression Visibility Wind Speed Wind Dir Waves Ship Positions

Norwegian Spirit

Operator: Norwegian Cruise Line

Last reported at 2017-Nov-19 01:00 UTC. Time now 2017-Nov-19 03:13 UTC.
Position N 36°24' W 003°00'.

Type: Passenger vessel. MMSI: 311746000.

Wind from 050 at 16 knots

Barometer 1020.0 mb
Air temperature 17.0 ° C
Visibility: greater than 10.8 NM
Water temperature 19.0 ° C

Date/timePositionNaut miles runAvg speedWind from/ knotsBaromVisibWave heightAir tempDewpointWater temp
2017-Nov-19 01:00N 36°24' W 003°00'22255.5 050 / 161020.010.8 17.0 19.0
2017-Nov-18 21:00N 36°30' E 001°36'11750.1 070 / 91020.010.8 20.0
2017-Nov-18 18:39N 36°44' W 000°49'517.9
2017-Nov-18 18:22N 36°45' W 000°42'3617.6
2017-Nov-18 16:19N 36°54' E 000°01'517.5
2017-Nov-18 16:00N 36°56' E 000°08'1017.6
2017-Nov-18 15:25N 36°58' E 000°20'917.9
2017-Nov-18 14:54N 37°01' E 000°31'1314.7
2017-Nov-18 14:00N 37°00' E 000°48'24719.0 090 / 31019.010.8 19.0 19.0
2017-Nov-18 01:00N 38°06' E 005°48'8220.5 340 / 271023.010.8 17.0 18.0
2017-Nov-17 21:00N 38°24' E 007°30'2019.7 300 / 231017.010.8 20.0
2017-Nov-17 20:00N 38°30' E 007°54'3323.3 330 / 221017.010.8 19.0
2017-Nov-17 18:35N 38°41' E 008°33'520.8
2017-Nov-17 18:22N 38°43' E 008°39'820.7
2017-Nov-17 18:00N 38°46' E 008°48'1020.8
2017-Nov-17 17:30N 38°52' E 008°58'1020.2
2017-Nov-17 17:00N 39°00' E 009°06'816.2
2017-Nov-17 16:29N 39°08' E 009°07'4 8.4
2017-Nov-17 16:00N 39°12' E 009°06'0 0.5
2017-Nov-17 15:26N 39°13' E 009°06'0 0.0
2017-Nov-17 14:56N 39°13' E 009°06'0 0.0
2017-Nov-17 14:26N 39°13' E 009°06'0 0.0
2017-Nov-17 13:56N 39°13' E 009°06'0 0.0
2017-Nov-17 13:26N 39°13' E 009°06'0 0.0
2017-Nov-17 12:56N 39°13' E 009°06'0 0.0
2017-Nov-17 12:26N 39°13' E 009°06'0 0.0
2017-Nov-17 11:56N 39°13' E 009°06'0 0.0
2017-Nov-17 11:26N 39°13' E 009°06'0 0.0
2017-Nov-17 10:56N 39°13' E 009°06'0 0.0
2017-Nov-17 10:26N 39°13' E 009°06'0 0.0
2017-Nov-17 09:56N 39°13' E 009°06'0 0.0
2017-Nov-17 09:26N 39°13' E 009°06'0 0.0
2017-Nov-17 08:56N 39°13' E 009°06'0 0.0
2017-Nov-17 08:26N 39°13' E 009°06'0 0.0
2017-Nov-17 07:56N 39°13' E 009°06'0 0.0
2017-Nov-17 07:26N 39°13' E 009°06'0 0.0
2017-Nov-17 06:56N 39°13' E 009°06'0 0.0
2017-Nov-17 06:26N 39°13' E 009°06'0 0.4
2017-Nov-17 06:00N 39°12' E 009°06'4 7.1
2017-Nov-17 05:30N 39°09' E 009°07'611.7
2017-Nov-17 05:00N 39°04' E 009°12'510.0
2017-Nov-17 04:30N 39°01' E 009°17'5 9.6
2017-Nov-17 04:00N 38°58' E 009°22'5 9.7
2017-Nov-17 03:30N 38°55' E 009°27'62 9.5
2017-Nov-16 21:00N 38°18' E 010°30'8 7.6 360 / 231015.010.8 19.0
2017-Nov-16 20:00N 38°12' E 010°36'93 9.3 360 / 251015.010.8 19.0
2017-Nov-16 10:00N 37°18' E 012°12'8710.0 340 / 201012.010.8 19.0
2017-Nov-16 01:12N 36°29' E 013°43'2 9.1
2017-Nov-16 01:01N 36°29' E 013°45'5 9.4
2017-Nov-16 00:30N 36°26' E 013°50'5 9.5
2017-Nov-16 00:00N 36°23' E 013°54'5 9.4
2017-Nov-15 23:30N 36°20' E 013°59'5 9.5
2017-Nov-15 23:00N 36°18' E 014°04'5 9.5
2017-Nov-15 22:30N 36°15' E 014°09'5 9.4
2017-Nov-15 22:00N 36°12' E 014°13'6412.1
2017-Nov-15 22:00N 36°06' E 014°12'510.9 150 / 161008.0 5.4 21.0
2017-Nov-15 21:30N 36°09' E 014°18'5 9.4
2017-Nov-15 21:01N 36°05' E 014°22'6366.9
2017-Nov-15 21:00N 36°00' E 014°18'713.9 160 / 111008.010.8 21.0
2017-Nov-15 20:30N 36°02' E 014°26'5 9.6
2017-Nov-15 20:00N 35°58' E 014°30'4 8.9
2017-Nov-15 19:30N 35°55' E 014°33'1 0.2
2017-Nov-15 12:47N 35°54' E 014°31'1 4.3
2017-Nov-15 12:30N 35°55' E 014°32'3 5.9
2017-Nov-15 11:59N 35°56' E 014°35'3 6.0
2017-Nov-15 11:30N 35°58' E 014°38'3 6.5
2017-Nov-15 10:59N 36°01' E 014°41'4 7.7
2017-Nov-15 10:30N 36°03' E 014°44'80 7.9
2017-Nov-15 00:23N 37°11' E 015°37'15 8.3
2017-Nov-14 22:34N 37°26' E 015°37'1 8.4
2017-Nov-14 22:30N 37°27' E 015°37'4 8.5
2017-Nov-14 22:00N 37°31' E 015°37'195.9
2017-Nov-14 22:00N 37°30' E 015°36'510.6 260 / 251006.010.8 20.0
2017-Nov-14 21:30N 37°35' E 015°37'4 8.3
2017-Nov-14 21:00N 37°39' E 015°36'3405.2
2017-Nov-14 21:00N 37°36' E 015°36'814.5 250 / 301006.010.8 20.0
2017-Nov-14 20:28N 37°43' E 015°35'4 8.1
2017-Nov-14 20:00N 37°47' E 015°35'7810.3
2017-Nov-14 20:00N 37°42' E 015°30'1020.1 220 / 251005.010.8 20.0
2017-Nov-14 19:29N 37°51' E 015°34'4 8.2
2017-Nov-14 19:00N 37°55' E 015°34'4 8.3
2017-Nov-14 18:30N 37°60' E 015°34'4 8.4
2017-Nov-14 18:00N 38°04' E 015°34'4 8.8
2017-Nov-14 17:30N 38°08' E 015°34'4 7.0
2017-Nov-14 16:58N 38°12' E 015°33'0 0.0
2017-Nov-14 16:25N 38°12' E 015°33'0 0.0
2017-Nov-14 15:55N 38°12' E 015°33'0 0.0
2017-Nov-14 15:22N 38°12' E 015°33'0 0.0
2017-Nov-14 14:55N 38°12' E 015°33'0 0.0
2017-Nov-14 14:28N 38°12' E 015°33'0 0.0
2017-Nov-14 13:55N 38°12' E 015°33'0 0.0
2017-Nov-14 13:28N 38°12' E 015°33'0 0.0
2017-Nov-14 12:58N 38°12' E 015°33'0 0.0
2017-Nov-14 12:25N 38°12' E 015°33'0 0.0
2017-Nov-14 11:58N 38°12' E 015°33'0 0.0
2017-Nov-14 11:25N 38°12' E 015°33'0 0.0
2017-Nov-14 10:58N 38°12' E 015°33'0 0.0
2017-Nov-14 10:25N 38°12' E 015°33'0 0.0
2017-Nov-14 09:58N 38°12' E 015°33'0 0.0
2017-Nov-14 09:28N 38°12' E 015°33'0 0.0
2017-Nov-14 08:55N 38°12' E 015°33'0 0.0
2017-Nov-14 08:25N 38°12' E 015°33'0 0.0
2017-Nov-14 07:55N 38°12' E 015°33'0 0.0
2017-Nov-14 07:28N 38°12' E 015°33'0 0.0
2017-Nov-14 06:55N 38°12' E 015°33'0 0.0
2017-Nov-14 06:30N 38°12' E 015°33'1 2.9
2017-Nov-14 06:00N 38°13' E 015°35'815.0
2017-Nov-14 05:30N 38°19' E 015°40'612.0
2017-Nov-14 05:00N 38°25' E 015°38'714.4
2017-Nov-14 04:30N 38°31' E 015°34'714.2
2017-Nov-14 04:00N 38°37' E 015°30'714.4
2017-Nov-14 03:30N 38°44' E 015°25'714.6
2017-Nov-14 03:00N 38°51' E 015°21'714.6
2017-Nov-14 02:29N 38°57' E 015°17'1014.5
2017-Nov-14 01:50N 39°06' E 015°12'1714.5
2017-Nov-14 00:39N 39°21' E 015°02'216.3
2017-Nov-14 00:30N 39°23' E 015°01'2414.8
2017-Nov-13 22:54N 39°45' E 014°48'814.8
2017-Nov-13 22:23N 39°52' E 014°44'616.3
2017-Nov-13 22:00N 39°54' E 014°36'1312.9 230 / 81002.0 5.4 20.0
2017-Nov-13 21:00N 40°06' E 014°30'1312.8 150 / 9 10.8 15.015.0
2017-Nov-13 20:00N 40°18' E 014°24'95 4.3 220 / 81000.0 5.4 19.0
2017-Nov-12 22:00N 41°06' E 012°36'2914.4 230 / 271003.0 5.4 19.0
2017-Nov-12 20:00N 41°24' E 012°06'51 2.3 240 / 361003.0 5.4 19.0
2017-Nov-11 22:00N 41°00' E 013°06'1818.1 340 / 121014.010.8 19.0
2017-Nov-11 21:00N 40°48' E 013°24'916.3 340 / 131014.010.8 19.0
2017-Nov-11 20:28N 40°48' E 013°35'816.7
2017-Nov-11 20:00N 40°42' E 013°42'317.7 350 / 91014.010.8 19.0
2017-Nov-11 19:50N 40°41' E 013°45'516.5
2017-Nov-11 19:30N 40°37' E 013°51'815.9
2017-Nov-11 19:00N 40°38' E 014°01'816.3
2017-Nov-11 18:30N 40°43' E 014°10'816.1
2017-Nov-11 18:00N 40°49' E 014°17'56 3.3
2017-Nov-11 01:09N 39°56' E 014°41'314.7
2017-Nov-11 00:55N 39°53' E 014°43'715.0
2017-Nov-11 00:26N 39°47' E 014°47'1914.9
2017-Nov-10 23:09N 39°29' E 014°58'215.1
2017-Nov-10 23:00N 39°27' E 014°59'1615.9
2017-Nov-10 22:00N 39°12' E 015°06'1114.0 280 / 81016.010.8 20.0
2017-Nov-10 21:13N 39°03' E 015°14'715.4
2017-Nov-10 20:47N 38°57' E 015°18'415.5
2017-Nov-10 20:30N 38°53' E 015°21'715.2
2017-Nov-10 20:01N 38°47' E 015°25'5292.9
2017-Nov-10 20:00N 38°42' E 015°24'5 9.1 310 / 151016.010.8 20.0
2017-Nov-10 19:30N 38°40' E 015°29'714.9
2017-Nov-10 19:00N 38°33' E 015°34'715.0
2017-Nov-10 18:31N 38°27' E 015°38'815.3
2017-Nov-10 18:01N 38°20' E 015°43'713.1
2017-Nov-10 17:30N 38°15' E 015°39'510.3
2017-Nov-10 17:01N 38°12' E 015°34'0 0.1
2017-Nov-10 16:30N 38°11' E 015°33'0 0.0
2017-Nov-10 16:00N 38°11' E 015°33'0 0.0
2017-Nov-10 15:30N 38°11' E 015°33'0 0.0
2017-Nov-10 15:00N 38°11' E 015°33'0 0.0
2017-Nov-10 14:30N 38°11' E 015°33'0 0.0
2017-Nov-10 14:00N 38°11' E 015°33'0 0.0
2017-Nov-10 13:30N 38°11' E 015°33'0 0.0
2017-Nov-10 13:00N 38°11' E 015°33'0 0.0
2017-Nov-10 12:30N 38°11' E 015°33'0 0.0
2017-Nov-10 12:00N 38°11' E 015°33'0 0.0
2017-Nov-10 11:30N 38°11' E 015°33'0 0.0
2017-Nov-10 11:00N 38°11' E 015°33'0 0.0
2017-Nov-10 10:30N 38°11' E 015°33'0 0.0
2017-Nov-10 10:00N 38°11' E 015°33'0 0.0
2017-Nov-10 09:30N 38°11' E 015°33'0 0.0
2017-Nov-10 09:00N 38°11' E 015°33'0 0.0
2017-Nov-10 08:30N 38°11' E 015°33'0 0.0
2017-Nov-10 08:00N 38°11' E 015°33'0 0.0
2017-Nov-10 07:30N 38°11' E 015°33'0 0.0
2017-Nov-10 07:00N 38°11' E 015°33'0 0.0
2017-Nov-10 06:30N 38°11' E 015°33'1 2.7
2017-Nov-10 06:01N 38°13' E 015°34'4 8.2
2017-Nov-10 05:30N 38°09' E 015°36'714.3
2017-Nov-10 05:00N 38°02' E 015°35'815.5
2017-Nov-10 04:30N 37°54' E 015°34'815.8
2017-Nov-10 04:00N 37°46' E 015°34'815.7
2017-Nov-10 03:30N 37°38' E 015°33'816.2
2017-Nov-10 02:59N 37°30' E 015°32'815.7
2017-Nov-10 02:30N 37°22' E 015°32'815.9
2017-Nov-10 02:00N 37°14' E 015°31'6615.7
2017-Nov-09 21:47N 36°14' E 014°55'516.1
2017-Nov-09 21:29N 36°11' E 014°51'1326.3
2017-Nov-09 21:00N 36°00' E 014°42'5347.5 140 / 211020.010.8 21.0
2017-Nov-09 20:59N 36°05' E 014°44'816.0
2017-Nov-09 20:30N 35°59' E 014°38'713.8
2017-Nov-09 20:00N 35°54' E 014°32'1 0.1
2017-Nov-09 11:24N 35°53' E 014°31'3 7.4
2017-Nov-09 11:00N 35°55' E 014°34'816.1
2017-Nov-09 10:30N 35°59' E 014°42'917.2
2017-Nov-09 10:00N 36°00' E 014°53'4020.1
2017-Nov-09 08:00N 35°54' E 015°42'   300 / 61022.010.8 21.0
Track history (hours):
 
Tides and Currents Weather Stations Pressure Air Temp Water Temp Dewpoint Dewpoint Depression Visibility Wind Speed Wind Dir Waves Ship Positions

Norwegian Spirit

Operator: Norwegian Cruise Line

Last reported at 2017-Nov-19 01:00 UTC. Time now 2017-Nov-19 03:13 UTC.
Position N 36°24' W 003°00'.

Type: Passenger vessel. MMSI: 311746000.

Wind from 050 at 16 knots

Barometer 1020.0 mb
Air temperature 17.0 ° C
Visibility: greater than 10.8 NM
Water temperature 19.0 ° C

Date/timePositionNaut miles runAvg speedWind from/ knotsBaromVisibWave heightAir tempDewpointWater temp
2017-Nov-19 01:00N 36°24' W 003°00'22255.5 050 / 161020.010.8 17.0 19.0
2017-Nov-18 21:00N 36°30' E 001°36'11750.1 070 / 91020.010.8 20.0
2017-Nov-18 18:39N 36°44' W 000°49'517.9
2017-Nov-18 18:22N 36°45' W 000°42'3617.6
2017-Nov-18 16:19N 36°54' E 000°01'517.5
2017-Nov-18 16:00N 36°56' E 000°08'1017.6
2017-Nov-18 15:25N 36°58' E 000°20'917.9
2017-Nov-18 14:54N 37°01' E 000°31'1314.7
2017-Nov-18 14:00N 37°00' E 000°48'24719.0 090 / 31019.010.8 19.0 19.0
2017-Nov-18 01:00N 38°06' E 005°48'8220.5 340 / 271023.010.8 17.0 18.0
2017-Nov-17 21:00N 38°24' E 007°30'2019.7 300 / 231017.010.8 20.0
2017-Nov-17 20:00N 38°30' E 007°54'3323.3 330 / 221017.010.8 19.0
2017-Nov-17 18:35N 38°41' E 008°33'520.8
2017-Nov-17 18:22N 38°43' E 008°39'820.7
2017-Nov-17 18:00N 38°46' E 008°48'1020.8
2017-Nov-17 17:30N 38°52' E 008°58'1020.2
2017-Nov-17 17:00N 39°00' E 009°06'816.2
2017-Nov-17 16:29N 39°08' E 009°07'4 8.4
2017-Nov-17 16:00N 39°12' E 009°06'0 0.5
2017-Nov-17 15:26N 39°13' E 009°06'0 0.0
2017-Nov-17 14:56N 39°13' E 009°06'0 0.0
2017-Nov-17 14:26N 39°13' E 009°06'0 0.0
2017-Nov-17 13:56N 39°13' E 009°06'0 0.0
2017-Nov-17 13:26N 39°13' E 009°06'0 0.0
2017-Nov-17 12:56N 39°13' E 009°06'0 0.0
2017-Nov-17 12:26N 39°13' E 009°06'0 0.0
2017-Nov-17 11:56N 39°13' E 009°06'0 0.0
2017-Nov-17 11:26N 39°13' E 009°06'0 0.0
2017-Nov-17 10:56N 39°13' E 009°06'0 0.0
2017-Nov-17 10:26N 39°13' E 009°06'0 0.0
2017-Nov-17 09:56N 39°13' E 009°06'0 0.0
2017-Nov-17 09:26N 39°13' E 009°06'0 0.0
2017-Nov-17 08:56N 39°13' E 009°06'0 0.0
2017-Nov-17 08:26N 39°13' E 009°06'0 0.0
2017-Nov-17 07:56N 39°13' E 009°06'0 0.0
2017-Nov-17 07:26N 39°13' E 009°06'0 0.0
2017-Nov-17 06:56N 39°13' E 009°06'0 0.0
2017-Nov-17 06:26N 39°13' E 009°06'0 0.4
2017-Nov-17 06:00N 39°12' E 009°06'4 7.1
2017-Nov-17 05:30N 39°09' E 009°07'611.7
2017-Nov-17 05:00N 39°04' E 009°12'510.0
2017-Nov-17 04:30N 39°01' E 009°17'5 9.6
2017-Nov-17 04:00N 38°58' E 009°22'5 9.7
2017-Nov-17 03:30N 38°55' E 009°27'62 9.5
2017-Nov-16 21:00N 38°18' E 010°30'8 7.6 360 / 231015.010.8 19.0
2017-Nov-16 20:00N 38°12' E 010°36'93 9.3 360 / 251015.010.8 19.0
2017-Nov-16 10:00N 37°18' E 012°12'8710.0 340 / 201012.010.8 19.0
2017-Nov-16 01:12N 36°29' E 013°43'2 9.1
2017-Nov-16 01:01N 36°29' E 013°45'5 9.4
2017-Nov-16 00:30N 36°26' E 013°50'5 9.5
2017-Nov-16 00:00N 36°23' E 013°54'5 9.4
2017-Nov-15 23:30N 36°20' E 013°59'5 9.5
2017-Nov-15 23:00N 36°18' E 014°04'5 9.5
2017-Nov-15 22:30N 36°15' E 014°09'5 9.4
2017-Nov-15 22:00N 36°12' E 014°13'6412.1
2017-Nov-15 22:00N 36°06' E 014°12'510.9 150 / 161008.0 5.4 21.0
2017-Nov-15 21:30N 36°09' E 014°18'5 9.4
2017-Nov-15 21:01N 36°05' E 014°22'6366.9
2017-Nov-15 21:00N 36°00' E 014°18'713.9 160 / 111008.010.8 21.0
2017-Nov-15 20:30N 36°02' E 014°26'5 9.6
2017-Nov-15 20:00N 35°58' E 014°30'4 8.9
2017-Nov-15 19:30N 35°55' E 014°33'1 0.2
2017-Nov-15 12:47N 35°54' E 014°31'1 4.3
2017-Nov-15 12:30N 35°55' E 014°32'3 5.9
2017-Nov-15 11:59N 35°56' E 014°35'3 6.0
2017-Nov-15 11:30N 35°58' E 014°38'3 6.5
2017-Nov-15 10:59N 36°01' E 014°41'4 7.7
2017-Nov-15 10:30N 36°03' E 014°44'80 7.9
2017-Nov-15 00:23N 37°11' E 015°37'15 8.3
2017-Nov-14 22:34N 37°26' E 015°37'1 8.4
2017-Nov-14 22:30N 37°27' E 015°37'4 8.5
2017-Nov-14 22:00N 37°31' E 015°37'195.9
2017-Nov-14 22:00N 37°30' E 015°36'510.6 260 / 251006.010.8 20.0
2017-Nov-14 21:30N 37°35' E 015°37'4 8.3
2017-Nov-14 21:00N 37°39' E 015°36'3405.2
2017-Nov-14 21:00N 37°36' E 015°36'814.5 250 / 301006.010.8 20.0
2017-Nov-14 20:28N 37°43' E 015°35'4 8.1
2017-Nov-14 20:00N 37°47' E 015°35'7810.3
2017-Nov-14 20:00N 37°42' E 015°30'1020.1 220 / 251005.010.8 20.0
2017-Nov-14 19:29N 37°51' E 015°34'4 8.2
2017-Nov-14 19:00N 37°55' E 015°34'4 8.3
2017-Nov-14 18:30N 37°60' E 015°34'4 8.4
2017-Nov-14 18:00N 38°04' E 015°34'4 8.8
2017-Nov-14 17:30N 38°08' E 015°34'4 7.0
2017-Nov-14 16:58N 38°12' E 015°33'0 0.0
2017-Nov-14 16:25N 38°12' E 015°33'0 0.0
2017-Nov-14 15:55N 38°12' E 015°33'0 0.0
2017-Nov-14 15:22N 38°12' E 015°33'0 0.0
2017-Nov-14 14:55N 38°12' E 015°33'0 0.0
2017-Nov-14 14:28N 38°12' E 015°33'0 0.0
2017-Nov-14 13:55N 38°12' E 015°33'0 0.0
2017-Nov-14 13:28N 38°12' E 015°33'0 0.0
2017-Nov-14 12:58N 38°12' E 015°33'0 0.0
2017-Nov-14 12:25N 38°12' E 015°33'0 0.0
2017-Nov-14 11:58N 38°12' E 015°33'0 0.0
2017-Nov-14 11:25N 38°12' E 015°33'0 0.0
2017-Nov-14 10:58N 38°12' E 015°33'0 0.0
2017-Nov-14 10:25N 38°12' E 015°33'0 0.0
2017-Nov-14 09:58N 38°12' E 015°33'0 0.0
2017-Nov-14 09:28N 38°12' E 015°33'0 0.0
2017-Nov-14 08:55N 38°12' E 015°33'0 0.0
2017-Nov-14 08:25N 38°12' E 015°33'0 0.0
2017-Nov-14 07:55N 38°12' E 015°33'0 0.0
2017-Nov-14 07:28N 38°12' E 015°33'0 0.0
2017-Nov-14 06:55N 38°12' E 015°33'0 0.0
2017-Nov-14 06:30N 38°12' E 015°33'1 2.9
2017-Nov-14 06:00N 38°13' E 015°35'815.0
2017-Nov-14 05:30N 38°19' E 015°40'612.0
2017-Nov-14 05:00N 38°25' E 015°38'714.4
2017-Nov-14 04:30N 38°31' E 015°34'714.2
2017-Nov-14 04:00N 38°37' E 015°30'714.4
2017-Nov-14 03:30N 38°44' E 015°25'714.6
2017-Nov-14 03:00N 38°51' E 015°21'714.6
2017-Nov-14 02:29N 38°57' E 015°17'1014.5
2017-Nov-14 01:50N 39°06' E 015°12'1714.5
2017-Nov-14 00:39N 39°21' E 015°02'216.3
2017-Nov-14 00:30N 39°23' E 015°01'2414.8
2017-Nov-13 22:54N 39°45' E 014°48'814.8
2017-Nov-13 22:23N 39°52' E 014°44'616.3
2017-Nov-13 22:00N 39°54' E 014°36'1312.9 230 / 81002.0 5.4 20.0
2017-Nov-13 21:00N 40°06' E 014°30'1312.8 150 / 9 10.8 15.015.0
2017-Nov-13 20:00N 40°18' E 014°24'95 4.3 220 / 81000.0 5.4 19.0
2017-Nov-12 22:00N 41°06' E 012°36'2914.4 230 / 271003.0 5.4 19.0
2017-Nov-12 20:00N 41°24' E 012°06'51 2.3 240 / 361003.0 5.4 19.0
2017-Nov-11 22:00N 41°00' E 013°06'1818.1 340 / 121014.010.8 19.0
2017-Nov-11 21:00N 40°48' E 013°24'916.3 340 / 131014.010.8 19.0
2017-Nov-11 20:28N 40°48' E 013°35'816.7
2017-Nov-11 20:00N 40°42' E 013°42'317.7 350 / 91014.010.8 19.0
2017-Nov-11 19:50N 40°41' E 013°45'516.5
2017-Nov-11 19:30N 40°37' E 013°51'815.9
2017-Nov-11 19:00N 40°38' E 014°01'816.3
2017-Nov-11 18:30N 40°43' E 014°10'816.1
2017-Nov-11 18:00N 40°49' E 014°17'56 3.3
2017-Nov-11 01:09N 39°56' E 014°41'314.7
2017-Nov-11 00:55N 39°53' E 014°43'715.0
2017-Nov-11 00:26N 39°47' E 014°47'1914.9
2017-Nov-10 23:09N 39°29' E 014°58'215.1
2017-Nov-10 23:00N 39°27' E 014°59'1615.9
2017-Nov-10 22:00N 39°12' E 015°06'1114.0 280 / 81016.010.8 20.0
2017-Nov-10 21:13N 39°03' E 015°14'715.4
2017-Nov-10 20:47N 38°57' E 015°18'415.5
2017-Nov-10 20:30N 38°53' E 015°21'715.2
2017-Nov-10 20:01N 38°47' E 015°25'5292.9
2017-Nov-10 20:00N 38°42' E 015°24'5 9.1 310 / 151016.010.8 20.0
2017-Nov-10 19:30N 38°40' E 015°29'714.9
2017-Nov-10 19:00N 38°33' E 015°34'715.0
2017-Nov-10 18:31N 38°27' E 015°38'815.3
2017-Nov-10 18:01N 38°20' E 015°43'713.1
2017-Nov-10 17:30N 38°15' E 015°39'510.3
2017-Nov-10 17:01N 38°12' E 015°34'0 0.1
2017-Nov-10 16:30N 38°11' E 015°33'0 0.0
2017-Nov-10 16:00N 38°11' E 015°33'0 0.0
2017-Nov-10 15:30N 38°11' E 015°33'0 0.0
2017-Nov-10 15:00N 38°11' E 015°33'0 0.0
2017-Nov-10 14:30N 38°11' E 015°33'0 0.0
2017-Nov-10 14:00N 38°11' E 015°33'0 0.0
2017-Nov-10 13:30N 38°11' E 015°33'0 0.0
2017-Nov-10 13:00N 38°11' E 015°33'0 0.0
2017-Nov-10 12:30N 38°11' E 015°33'0 0.0
2017-Nov-10 12:00N 38°11' E 015°33'0 0.0
2017-Nov-10 11:30N 38°11' E 015°33'0 0.0
2017-Nov-10 11:00N 38°11' E 015°33'0 0.0
2017-Nov-10 10:30N 38°11' E 015°33'0 0.0
2017-Nov-10 10:00N 38°11' E 015°33'0 0.0
2017-Nov-10 09:30N 38°11' E 015°33'0 0.0
2017-Nov-10 09:00N 38°11' E 015°33'0 0.0
2017-Nov-10 08:30N 38°11' E 015°33'0 0.0
2017-Nov-10 08:00N 38°11' E 015°33'0 0.0
2017-Nov-10 07:30N 38°11' E 015°33'0 0.0
2017-Nov-10 07:00N 38°11' E 015°33'0 0.0
2017-Nov-10 06:30N 38°11' E 015°33'1 2.7
2017-Nov-10 06:01N 38°13' E 015°34'4 8.2
2017-Nov-10 05:30N 38°09' E 015°36'714.3
2017-Nov-10 05:00N 38°02' E 015°35'815.5
2017-Nov-10 04:30N 37°54' E 015°34'815.8
2017-Nov-10 04:00N 37°46' E 015°34'815.7
2017-Nov-10 03:30N 37°38' E 015°33'816.2
2017-Nov-10 02:59N 37°30' E 015°32'815.7
2017-Nov-10 02:30N 37°22' E 015°32'815.9
2017-Nov-10 02:00N 37°14' E 015°31'6615.7
2017-Nov-09 21:47N 36°14' E 014°55'516.1
2017-Nov-09 21:29N 36°11' E 014°51'1326.3
2017-Nov-09 21:00N 36°00' E 014°42'5347.5 140 / 211020.010.8 21.0
2017-Nov-09 20:59N 36°05' E 014°44'816.0
2017-Nov-09 20:30N 35°59' E 014°38'713.8
2017-Nov-09 20:00N 35°54' E 014°32'1 0.1
2017-Nov-09 11:24N 35°53' E 014°31'3 7.4
2017-Nov-09 11:00N 35°55' E 014°34'816.1
2017-Nov-09 10:30N 35°59' E 014°42'917.2
2017-Nov-09 10:00N 36°00' E 014°53'4020.1
2017-Nov-09 08:00N 35°54' E 015°42'   300 / 61022.010.8 21.0

Dump ship's entire track history